Terminal Aerodrome Forecast
Issued by NWS

Home | Current Version | Previous Version | Text Only | Print | Product List | Glossary On
Versions: 1 2 3 4 5 6 7 8 9 10 11 12 13 14 15 16 17 18 19 20 21 22 23 24 25 26 27 28 29 30 31 32 33 34 35 36 37 38 39 40 41 42 43 44 45 46
000
FTUS43 KDMX 142118 AAB
TAFOTM
TAF AMD
KOTM 142118Z 1421/1518 14011KT P6SM OVC012
      TEMPO 1421/1423 6SM BLSN OVC007
     FM142300 13006KT P6SM SCT015 OVC024
     FM150600 VRB03KT 5SM BR BKN018
     FM151100 17004KT 3SM BR SCT007 OVC011=

USA.gov is the U.S. government's official web portal to all federal, state and local government web resources and services.